Time;durP1;ratioP1;P1;durP2;ratioP2;P2;SDS_P1;SDS_P2;PMS_P1;PMS_P2;Temp;Humidity;BMP_temperature;BMP_pressure;BME280_temperature;BME280_humidity;BME280_pressure;Samples;Min_cycle;Max_cycle;Signal;HPM_P1;HPM_P2
2023/11/23 00:00:41;;;;;;;;;;;;;;;-144.99;100.00;67352.69;5077976;28;20390;-82
2023/11/23 00:03:06;;;;;;;;;;;;;;;-144.99;100.00;67352.69;5052138;28;19967;-82
2023/11/23 00:05:31;;;;;;;;;;;;;;;-144.99;100.00;67352.69;5077349;28;19966;-83
2023/11/23 00:07:57;;;;;;;;;;;;;;;-144.99;100.00;67352.69;5077470;28;19979;-82
2023/11/23 00:10:22;;;;;;;;;;;;;;;-144.99;100.00;67352.69;5059058;28;19916;-82
2023/11/23 00:12:48;;;;;;;;;;;;;;;-144.99;100.00;67352.69;5077975;28;19958;-83
2023/11/23 00:15:13;;;;;;;;;;;;;;;-144.99;100.00;67352.69;5061624;28;19912;-83
2023/11/23 00:17:38;;;;;;;;;;;;;;;-144.99;100.00;67352.69;5061428;28;19959;-83
2023/11/23 00:20:06;;;;;;;;;;;;;;;-144.99;100.00;67352.69;5079203;28;19948;-82
2023/11/23 00:22:32;;;;;;;;;;;;;;;-144.99;100.00;67352.69;5079021;28;19913;-83
2023/11/23 00:24:57;;;;;;;;;;;;;;;-144.99;100.00;67352.69;5078897;28;19912;-82
2023/11/23 00:27:23;;;;;;;;;;;;;;;-144.99;100.00;67352.69;5078267;28;19995;-84
2023/11/23 00:29:48;;;;;;;;;;;;;;;-144.99;100.00;67352.69;5078660;28;20275;-83
2023/11/23 00:32:13;;;;;;;;;;;;;;;-144.99;100.00;67352.69;5078397;28;19912;-83
2023/11/23 00:34:39;;;;;;;;;;;;;;;-144.99;100.00;67352.69;5060404;28;19958;-82
2023/11/23 00:37:07;;;;;;;;;;;;;;;-144.99;100.00;67352.69;5058691;28;19913;-83
2023/11/23 00:39:32;;;;;;;;;;;;;;;-144.99;100.00;67352.69;5060294;28;19912;-83
2023/11/23 00:41:57;;;;;;;;;;;;;;;-144.99;100.00;67352.69;5077663;28;19920;-83
2023/11/23 00:44:22;;;;;;;;;;;;;;;-144.99;100.00;67352.69;5059958;28;19920;-83
2023/11/23 00:46:47;;;;;;;;;;;;;;;-144.99;100.00;67352.69;5077406;28;19929;-83
2023/11/23 00:49:13;;;;;;;;;;;;;;;-144.99;100.00;67352.69;5077457;28;19916;-83
2023/11/23 00:51:38;;;;;;;;;;;;;;;-144.99;100.00;67352.69;5058794;28;20390;-83
2023/11/23 00:54:06;;;;;;;;;;;;;;;-144.99;100.00;67352.69;5059005;28;20000;-83
2023/11/23 00:56:32;;;;;;;;;;;;;;;-144.99;100.00;67352.69;5059202;28;19917;-83
2023/11/23 00:58:57;;;;;;;;;;;;;;;-144.99;100.00;67352.69;5076912;28;20387;-82
2023/11/23 01:01:22;;;;;;;;;;;;;;;-144.99;100.00;67352.69;5076541;28;19912;-82
2023/11/23 01:03:47;;;;;;;;;;;;;;;-144.99;100.00;67352.69;5058795;28;19967;-83
2023/11/23 01:06:12;;;;;;;;;;;;;;;-144.99;100.00;67352.69;5057424;28;20386;-83
2023/11/23 01:08:38;;;;;;;;;;;;;;;-144.99;100.00;67352.69;5057781;28;19932;-82
2023/11/23 01:11:03;;;;;;;;;;;;;;;-144.99;100.00;67352.69;5057372;28;19916;-83
2023/11/23 01:13:29;;;;;;;;;;;;;;;-144.99;100.00;67352.69;5057578;28;19948;-83
2023/11/23 01:15:54;;;;;;;;;;;;;;;-144.99;100.00;67352.69;5075522;28;19912;-82
2023/11/23 01:18:19;;;;;;;;;;;;;;;-144.99;100.00;67352.69;5075260;28;19923;-83
2023/11/23 01:20:45;;;;;;;;;;;;;;;-144.99;100.00;67352.69;5075558;28;19912;-83
2023/11/23 01:23:11;;;;;;;;;;;;;;;-144.99;100.00;67352.69;5074645;28;19952;-83
2023/11/23 01:25:36;;;;;;;;;;;;;;;-144.99;100.00;67352.69;5074801;28;20011;-83
2023/11/23 01:28:01;;;;;;;;;;;;;;;-144.99;100.00;67352.69;5075096;28;19967;-83
2023/11/23 01:30:27;;;;;;;;;;;;;;;-144.99;100.00;67352.69;5075136;28;19916;-83
2023/11/23 01:32:52;;;;;;;;;;;;;;;-144.99;100.00;67352.69;5074988;28;19944;-83
2023/11/23 01:35:20;;;;;;;;;;;;;;;-144.99;100.00;67352.69;5074863;28;19912;-83
2023/11/23 01:37:45;;;;;;;;;;;;;;;-144.99;100.00;67352.69;5074665;28;19947;-83
2023/11/23 01:40:11;;;;;;;;;;;;;;;-144.99;100.00;67352.69;5056526;28;19912;-83
2023/11/23 01:42:37;;;;;;;;;;;;;;;-144.99;100.00;67352.69;5056191;28;19958;-83
2023/11/23 01:45:02;;;;;;;;;;;;;;;-144.99;100.00;67352.69;5056009;28;19920;-83
2023/11/23 01:47:27;;;;;;;;;;;;;;;-144.99;100.00;67352.69;5073766;28;19963;-83
2023/11/23 01:49:54;;;;;;;;;;;;;;;-144.99;100.00;67352.69;5056307;28;19969;-82
2023/11/23 01:52:19;;;;;;;;;;;;;;;-144.99;100.00;67352.69;5065736;28;19940;-83
2023/11/23 01:54:44;;;;;;;;;;;;;;;-144.99;100.00;67352.69;5093712;28;19934;-83
2023/11/23 01:57:11;;;;;;;;;;;;;;;-144.99;100.00;67352.69;5067275;28;19916;-83
2023/11/23 01:59:36;;;;;;;;;;;;;;;-144.99;100.00;67352.69;5054523;28;19916;-83
2023/11/23 02:02:03;;;;;;;;;;;;;;;-144.99;100.00;67352.69;5054507;28;19912;-83
2023/11/23 02:04:28;;;;;;;;;;;;;;;-144.99;100.00;67352.69;5072148;28;19998;-83
2023/11/23 02:06:54;;;;;;;;;;;;;;;-144.99;100.00;67352.69;5054058;28;20007;-82
2023/11/23 02:09:19;;;;;;;;;;;;;;;-144.99;100.00;67352.69;5072235;28;20007;-83
2023/11/23 02:11:44;;;;;;;;;;;;;;;-144.99;100.00;67352.69;5072084;28;19916;-82
2023/11/23 02:14:10;;;;;;;;;;;;;;;-144.99;100.00;67352.69;5054147;28;19924;-83
2023/11/23 02:16:37;;;;;;;;;;;;;;;-144.99;100.00;67352.69;5072026;28;19913;-83
2023/11/23 02:19:04;;;;;;;;;;;;;;;-144.99;100.00;67352.69;5072069;28;19966;-83
2023/11/23 02:21:29;;;;;;;;;;;;;;;-144.99;100.00;67352.69;5054346;28;19920;-83
2023/11/23 02:23:54;;;;;;;;;;;;;;;-144.99;100.00;67352.69;5046934;28;19917;-83
2023/11/23 02:26:19;;;;;;;;;;;;;;;-144.99;100.00;67352.69;5070853;28;20428;-83
2023/11/23 02:28:45;;;;;;;;;;;;;;;-144.99;100.00;67352.69;5072657;28;19921;-83
2023/11/23 02:31:11;;;;;;;;;;;;;;;-144.99;100.00;67352.69;5054153;28;19962;-83
2023/11/23 02:33:36;;;;;;;;;;;;;;;-144.99;100.00;67352.69;5072039;28;19999;-82
2023/11/23 02:36:02;;;;;;;;;;;;;;;-144.99;100.00;67352.69;5072010;28;19912;-82
2023/11/23 02:38:27;;;;;;;;;;;;;;;-144.99;100.00;67352.69;5054025;28;19919;-82
2023/11/23 02:40:53;;;;;;;;;;;;;;;-144.99;100.00;67352.69;5072499;28;20275;-83
2023/11/23 02:43:18;;;;;;;;;;;;;;;-144.99;100.00;67352.69;5053913;28;19916;-83
2023/11/23 02:45:45;;;;;;;;;;;;;;;-144.99;100.00;67352.69;5071924;28;19920;-83
2023/11/23 02:48:10;;;;;;;;;;;;;;;-144.99;100.00;67352.69;5053827;28;19920;-82
2023/11/23 02:50:36;;;;;;;;;;;;;;;-144.99;100.00;67352.69;5053940;28;20383;-83
2023/11/23 02:53:01;;;;;;;;;;;;;;;-144.99;100.00;67352.69;5071931;28;19912;-83
2023/11/23 02:55:26;;;;;;;;;;;;;;;-144.99;100.00;67352.69;5053813;28;20030;-83
2023/11/23 02:57:52;;;;;;;;;;;;;;;-144.99;100.00;67352.69;5053681;28;20010;-83
2023/11/23 03:00:17;;;;;;;;;;;;;;;-144.99;100.00;67352.69;5055470;28;20302;-83
2023/11/23 03:02:42;;;;;;;;;;;;;;;-144.99;100.00;67352.69;5075941;28;19919;-83
2023/11/23 03:05:10;;;;;;;;;;;;;;;-144.99;100.00;67352.69;5061074;28;20294;-83
2023/11/23 03:07:35;;;;;;;;;;;;;;;-144.99;100.00;67352.69;5072356;28;19917;-83
2023/11/23 03:10:01;;;;;;;;;;;;;;;-144.99;100.00;67352.69;5105523;22;20224;-82
2023/11/23 03:12:26;;;;;;;;;;;;;;;-144.99;100.00;67352.69;5077496;28;19946;-82
2023/11/23 03:14:52;;;;;;;;;;;;;;;-144.99;100.00;67352.69;5071128;28;19912;-83
2023/11/23 03:17:18;;;;;;;;;;;;;;;-144.99;100.00;67352.69;5078623;28;20286;-83
2023/11/23 03:19:44;;;;;;;;;;;;;;;-144.99;100.00;67352.69;5079761;28;19947;-83
2023/11/23 03:22:09;;;;;;;;;;;;;;;-144.99;100.00;67352.69;5060437;28;20366;-83
2023/11/23 03:24:34;;;;;;;;;;;;;;;-144.99;100.00;67352.69;5060395;28;20398;-83
2023/11/23 03:26:59;;;;;;;;;;;;;;;-144.99;100.00;67352.69;5054296;28;19924;-82
2023/11/23 03:29:26;;;;;;;;;;;;;;;-144.99;100.00;67352.69;5076271;28;19944;-83
2023/11/23 03:31:51;;;;;;;;;;;;;;;-144.99;100.00;67352.69;5070788;28;19913;-84
2023/11/23 03:34:16;;;;;;;;;;;;;;;-144.99;100.00;67352.69;5049939;28;19913;-83
2023/11/23 03:36:42;;;;;;;;;;;;;;;-144.99;100.00;67352.69;5059743;28;20366;-84
2023/11/23 03:39:07;;;;;;;;;;;;;;;-144.99;100.00;67352.69;5077688;28;19963;-83
2023/11/23 03:41:33;;;;;;;;;;;;;;;-144.99;100.00;67352.69;5072445;28;19913;-83
2023/11/23 03:43:58;;;;;;;;;;;;;;;-144.99;100.00;67352.69;5063738;28;19920;-84
2023/11/23 03:46:23;;;;;;;;;;;;;;;-144.99;100.00;67352.69;5072721;28;19913;-84
2023/11/23 03:48:48;;;;;;;;;;;;;;;-144.99;100.00;67352.69;5088358;28;19927;-84
2023/11/23 03:51:14;;;;;;;;;;;;;;;-144.99;100.00;67352.69;5082073;28;20295;-86
2023/11/23 03:53:39;;;;;;;;;;;;;;;-144.99;100.00;67352.69;5073369;28;19938;-84
2023/11/23 03:56:05;;;;;;;;;;;;;;;-144.99;100.00;67352.69;5074180;28;19913;-85
2023/11/23 03:58:30;;;;;;;;;;;;;;;-144.99;100.00;67352.69;5068523;28;19913;-83
2023/11/23 04:00:55;;;;;;;;;;;;;;;-144.99;100.00;67352.69;5058594;28;19916;-84
2023/11/23 04:03:20;;;;;;;;;;;;;;;-144.99;100.00;67352.69;5061215;28;19913;-86
2023/11/23 04:05:46;;;;;;;;;;;;;;;-144.99;100.00;67352.69;5080352;28;20016;-85
2023/11/23 04:08:11;;;;;;;;;;;;;;;-144.99;100.00;67352.69;5083299;28;19916;-86
2023/11/23 04:10:36;;;;;;;;;;;;;;;-144.99;100.00;67352.69;5067894;28;19920;-85
2023/11/23 04:13:01;;;;;;;;;;;;;;;-144.99;100.00;67352.69;5067242;28;19912;-86
2023/11/23 04:15:27;;;;;;;;;;;;;;;-144.99;100.00;67352.69;5084809;28;20378;-85
2023/11/23 04:17:52;;;;;;;;;;;;;;;-144.99;100.00;67352.69;5085718;28;19912;-84
2023/11/23 04:20:18;;;;;;;;;;;;;;;-144.99;100.00;67352.69;5084589;28;19913;-84
2023/11/23 04:22:43;;;;;;;;;;;;;;;-144.99;100.00;67352.69;5067391;28;19912;-85
2023/11/23 04:25:08;;;;;;;;;;;;;;;-144.99;100.00;67352.69;5067514;28;19926;-85
2023/11/23 04:27:33;;;;;;;;;;;;;;;-144.99;100.00;67352.69;5084922;28;19923;-84
2023/11/23 04:29:59;;;;;;;;;;;;;;;-144.99;100.00;67352.69;5085284;28;19913;-84
2023/11/23 04:32:24;;;;;;;;;;;;;;;-144.99;100.00;67352.69;5066304;28;19916;-84
2023/11/23 04:34:49;;;;;;;;;;;;;;;-144.99;100.00;67352.69;5066330;28;19920;-84
2023/11/23 04:37:14;;;;;;;;;;;;;;;-144.99;100.00;67352.69;5065814;28;19966;-85
2023/11/23 04:39:40;;;;;;;;;;;;;;;-144.99;100.00;67352.69;5059958;28;19960;-84
2023/11/23 04:42:05;;;;;;;;;;;;;;;-144.99;100.00;67352.69;5054317;28;19934;-86
2023/11/23 04:44:30;;;;;;;;;;;;;;;-144.99;100.00;67352.69;5056116;28;19912;-83
2023/11/23 04:46:55;;;;;;;;;;;;;;;-144.99;100.00;67352.69;5069529;28;20271;-84
2023/11/23 04:49:21;;;;;;;;;;;;;;;-144.99;100.00;67352.69;5057642;28;19912;-84
2023/11/23 04:51:46;;;;;;;;;;;;;;;-144.99;100.00;67352.69;5057452;28;20433;-83
2023/11/23 04:54:12;;;;;;;;;;;;;;;-144.99;100.00;67352.69;5061284;28;19912;-85
2023/11/23 04:56:37;;;;;;;;;;;;;;;-144.99;100.00;67352.69;5073029;28;20305;-85
2023/11/23 04:59:02;;;;;;;;;;;;;;;-144.99;100.00;67352.69;5081524;28;19913;-84
2023/11/23 05:01:28;;;;;;;;;;;;;;;-144.99;100.00;67352.69;5062028;28;20290;-84
2023/11/23 05:03:53;;;;;;;;;;;;;;;-144.99;100.00;67352.69;5079728;28;19912;-84
2023/11/23 05:06:19;;;;;;;;;;;;;;;-144.99;100.00;67352.69;5052302;28;20401;-82
2023/11/23 05:08:46;;;;;;;;;;;;;;;-144.99;100.00;67352.69;5058400;28;20371;-83
2023/11/23 05:11:12;;;;;;;;;;;;;;;-144.99;100.00;67352.69;5057009;28;20264;-83
2023/11/23 05:13:37;;;;;;;;;;;;;;;-144.99;100.00;67352.69;5074650;28;19966;-84
2023/11/23 05:16:02;;;;;;;;;;;;;;;-144.99;100.00;67352.69;5074552;28;20457;-83
2023/11/23 05:18:28;;;;;;;;;;;;;;;-144.99;100.00;67352.69;5056385;28;19913;-83
2023/11/23 05:20:53;;;;;;;;;;;;;;;-144.99;100.00;67352.69;5056767;28;19913;-84
2023/11/23 05:23:18;;;;;;;;;;;;;;;-144.99;100.00;67352.69;5073898;28;19917;-84
2023/11/23 05:25:43;;;;;;;;;;;;;;;-144.99;100.00;67352.69;5075162;28;19975;-84
2023/11/23 05:28:08;;;;;;;;;;;;;;;-144.99;100.00;67352.69;5056419;28;19943;-85
2023/11/23 05:30:34;;;;;;;;;;;;;;;-144.99;100.00;67352.69;5075089;28;19913;-83
2023/11/23 05:33:00;;;;;;;;;;;;;;;-144.99;100.00;67352.69;5056580;28;19970;-83
2023/11/23 05:35:25;;;;;;;;;;;;;;;-144.99;100.00;67352.69;5074768;28;19919;-84
2023/11/23 05:37:51;;;;;;;;;;;;;;;-144.99;100.00;67352.69;5074029;28;20366;-86
2023/11/23 05:40:16;;;;;;;;;;;;;;;-144.99;100.00;67352.69;5056225;28;20549;-83
2023/11/23 05:42:41;;;;;;;;;;;;;;;-144.99;100.00;67352.69;5050871;28;19962;-85
2023/11/23 05:45:08;;;;;;;;;;;;;;;-144.99;100.00;67352.69;5053691;28;19913;-83
2023/11/23 05:47:33;;;;;;;;;;;;;;;-144.99;100.00;67352.69;5073721;28;19923;-84
2023/11/23 05:50:01;;;;;;;;;;;;;;;-144.99;100.00;67352.69;5056235;28;19999;-84
2023/11/23 05:52:27;;;;;;;;;;;;;;;-144.99;100.00;67352.69;5074165;28;19912;-83
2023/11/23 05:54:54;;;;;;;;;;;;;;;-144.99;100.00;67352.69;5073652;28;19947;-84
2023/11/23 05:57:19;;;;;;;;;;;;;;;-144.99;100.00;67352.69;5076870;28;19916;-83
2023/11/23 05:59:44;;;;;;;;;;;;;;;-144.99;100.00;67352.69;5074275;28;19920;-84
2023/11/23 06:02:09;;;;;;;;;;;;;;;-144.99;100.00;67352.69;5056649;28;19912;-84
2023/11/23 06:04:35;;;;;;;;;;;;;;;-144.99;100.00;67352.69;5074458;28;19963;-84
2023/11/23 06:07:00;;;;;;;;;;;;;;;-144.99;100.00;67352.69;5074024;28;19916;-84
2023/11/23 06:09:25;;;;;;;;;;;;;;;-144.99;100.00;67352.69;5056347;28;19958;-84
2023/11/23 06:11:50;;;;;;;;;;;;;;;-144.99;100.00;67352.69;5056523;28;19916;-83
2023/11/23 06:14:15;;;;;;;;;;;;;;;-144.99;100.00;67352.69;5074631;28;19948;-84
2023/11/23 06:16:41;;;;;;;;;;;;;;;-144.99;100.00;67352.69;5056476;28;19952;-84
2023/11/23 06:19:06;;;;;;;;;;;;;;;-144.99;100.00;67352.69;5074353;28;19947;-84
2023/11/23 06:21:32;;;;;;;;;;;;;;;-144.99;100.00;67352.69;5056067;28;19920;-83
2023/11/23 06:23:58;;;;;;;;;;;;;;;-144.99;100.00;67352.69;5074166;28;19912;-83
2023/11/23 06:26:23;;;;;;;;;;;;;;;-144.99;100.00;67352.69;5056160;28;19969;-83
2023/11/23 06:28:48;;;;;;;;;;;;;;;-144.99;100.00;67352.69;5074092;28;19924;-83
2023/11/23 06:31:13;;;;;;;;;;;;;;;-144.99;100.00;67352.69;5056158;28;19919;-85
2023/11/23 06:33:38;;;;;;;;;;;;;;;-144.99;100.00;67352.69;5074223;28;20329;-84
2023/11/23 06:36:04;;;;;;;;;;;;;;;-144.99;100.00;67352.69;5055171;28;19916;-85
2023/11/23 06:38:29;;;;;;;;;;;;;;;-144.99;100.00;67352.69;5056125;28;19931;-84
2023/11/23 06:40:55;;;;;;;;;;;;;;;-144.99;100.00;67352.69;5074301;28;19913;-84
2023/11/23 06:43:20;;;;;;;;;;;;;;;-144.99;100.00;67352.69;5071524;28;19912;-84
2023/11/23 06:45:46;;;;;;;;;;;;;;;-144.99;100.00;67352.69;5068369;28;19980;-84
2023/11/23 06:48:13;;;;;;;;;;;;;;;-144.99;100.00;67352.69;5047491;28;19917;-84
2023/11/23 06:50:39;;;;;;;;;;;;;;;-144.99;100.00;67352.69;5055940;28;20437;-84
2023/11/23 06:53:04;;;;;;;;;;;;;;;-144.99;100.00;67352.69;5074242;28;19913;-84
2023/11/23 06:55:29;;;;;;;;;;;;;;;-144.99;100.00;67352.69;5065840;28;19993;-84
2023/11/23 06:57:54;;;;;;;;;;;;;;;-144.99;100.00;67352.69;5056085;28;19913;-84
2023/11/23 07:00:22;;;;;;;;;;;;;;;-144.99;100.00;67352.69;5073989;28;19913;-84
2023/11/23 07:02:58;;;;;;;;;;;;;;;-144.99;100.00;67352.69;5073796;28;19966;-84
2023/11/23 07:05:24;;;;;;;;;;;;;;;-144.99;100.00;67352.69;5052313;28;19917;-84
2023/11/23 07:07:49;;;;;;;;;;;;;;;-144.99;100.00;67352.69;5059639;28;19928;-84
2023/11/23 07:10:15;;;;;;;;;;;;;;;-144.99;100.00;67352.69;5074146;28;19916;-83
2023/11/23 07:12:41;;;;;;;;;;;;;;;-144.99;100.00;67352.69;5058866;28;20484;-84
2023/11/23 07:15:06;;;;;;;;;;;;;;;-144.99;100.00;67352.69;5056396;28;19913;-84
2023/11/23 07:17:31;;;;;;;;;;;;;;;-144.99;100.00;67352.69;5072782;28;19962;-85
2023/11/23 07:19:56;;;;;;;;;;;;;;;-144.99;100.00;67352.69;5081665;28;19976;-85
2023/11/23 07:22:23;;;;;;;;;;;;;;;-144.99;100.00;67352.69;5061732;28;20390;-83
2023/11/23 07:24:48;;;;;;;;;;;;;;;-144.99;100.00;67352.69;5077523;28;19919;-83
2023/11/23 07:27:13;;;;;;;;;;;;;;;-144.99;100.00;67352.69;5076639;28;19917;-83
2023/11/23 07:29:39;;;;;;;;;;;;;;;-144.99;100.00;67352.69;5055918;28;19916;-82
2023/11/23 07:32:04;;;;;;;;;;;;;;;-144.99;100.00;67352.69;5073775;28;20003;-83
2023/11/23 07:34:29;;;;;;;;;;;;;;;-144.99;100.00;67352.69;5056296;28;19920;-84
2023/11/23 07:36:55;;;;;;;;;;;;;;;-144.99;100.00;67352.69;5068572;28;19943;-84
2023/11/23 07:39:20;;;;;;;;;;;;;;;-144.99;100.00;67352.69;5057837;28;20299;-84
2023/11/23 07:41:46;;;;;;;;;;;;;;;-144.99;100.00;67352.69;5072322;28;19940;-84
2023/11/23 07:44:11;;;;;;;;;;;;;;;-144.99;100.00;67352.69;5052357;28;19913;-85
2023/11/23 07:46:36;;;;;;;;;;;;;;;-144.99;100.00;67352.69;5063312;28;19912;-85
2023/11/23 07:49:01;;;;;;;;;;;;;;;-144.99;100.00;67352.69;5079891;28;20011;-84
2023/11/23 07:51:27;;;;;;;;;;;;;;;-144.99;100.00;67352.69;5076553;28;20287;-84
2023/11/23 07:53:52;;;;;;;;;;;;;;;-144.99;100.00;67352.69;5059041;28;19917;-85
2023/11/23 07:56:17;;;;;;;;;;;;;;;-144.99;100.00;67352.69;5050242;28;19913;-84
2023/11/23 07:58:43;;;;;;;;;;;;;;;-144.99;100.00;67352.69;5052937;28;19913;-85
2023/11/23 08:01:08;;;;;;;;;;;;;;;-144.99;100.00;67352.69;5073637;28;19965;-84
2023/11/23 08:03:34;;;;;;;;;;;;;;;-144.99;100.00;67352.69;5076264;28;19912;-84
2023/11/23 08:05:59;;;;;;;;;;;;;;;-144.99;100.00;67352.69;5076390;28;19916;-84
2023/11/23 08:08:24;;;;;;;;;;;;;;;-144.99;100.00;67352.69;5049806;28;20007;-84
2023/11/23 08:10:50;;;;;;;;;;;;;;;-144.99;100.00;67352.69;5057781;28;20435;-86
2023/11/23 08:13:15;;;;;;;;;;;;;;;-144.99;100.00;67352.69;5076098;28;19924;-84
2023/11/23 08:15:42;;;;;;;;;;;;;;;-144.99;100.00;67352.69;5078175;28;19943;-85
2023/11/23 08:18:07;;;;;;;;;;;;;;;-144.99;100.00;67352.69;5080831;28;20314;-86
2023/11/23 08:20:33;;;;;;;;;;;;;;;-144.99;100.00;67352.69;5083078;28;19919;-85
2023/11/23 08:22:58;;;;;;;;;;;;;;;-144.99;100.00;67352.69;5071922;28;19952;-85
2023/11/23 08:25:24;;;;;;;;;;;;;;;-144.99;100.00;67352.69;5077985;28;19920;-85
2023/11/23 08:27:49;;;;;;;;;;;;;;;-144.99;100.00;67352.69;5082887;28;20298;-85
2023/11/23 08:30:15;;;;;;;;;;;;;;;-144.99;100.00;67352.69;5066607;28;19913;-85
2023/11/23 08:32:40;;;;;;;;;;;;;;;-144.99;100.00;67352.69;5058473;28;19913;-85
2023/11/23 08:35:08;;;;;;;;;;;;;;;-144.99;100.00;67352.69;5079442;28;19912;-84
2023/11/23 08:37:33;;;;;;;;;;;;;;;-144.99;100.00;67352.69;5059688;28;19920;-83
2023/11/23 08:39:59;;;;;;;;;;;;;;;-144.99;100.00;67352.69;5059722;28;19916;-84
2023/11/23 08:42:24;;;;;;;;;;;;;;;-144.99;100.00;67352.69;5058850;28;19913;-86
2023/11/23 08:44:49;;;;;;;;;;;;;;;-144.99;100.00;67352.69;5058075;28;19916;-85
2023/11/23 08:47:15;;;;;;;;;;;;;;;-144.99;100.00;67352.69;5066617;28;19963;-83
2023/11/23 08:49:41;;;;;;;;;;;;;;;-144.99;100.00;67352.69;5074540;28;19939;-83
2023/11/23 08:52:06;;;;;;;;;;;;;;;-144.99;100.00;67352.69;5068269;28;19912;-83
2023/11/23 08:54:34;;;;;;;;;;;;;;;-144.99;100.00;67352.69;5083277;28;19927;-83
2023/11/23 08:57:01;;;;;;;;;;;;;;;-144.99;100.00;67352.69;5067417;28;19912;-85
2023/11/23 08:59:26;;;;;;;;;;;;;;;-144.99;100.00;67352.69;5067124;28;19920;-85
2023/11/23 09:01:52;;;;;;;;;;;;;;;-144.99;100.00;67352.69;5086921;28;19912;-84
2023/11/23 09:04:18;;;;;;;;;;;;;;;-144.99;100.00;67352.69;5086582;28;20275;-85
2023/11/23 09:06:43;;;;;;;;;;;;;;;-144.99;100.00;67352.69;5087112;28;19919;-84
2023/11/23 09:09:09;;;;;;;;;;;;;;;-144.99;100.00;67352.69;5068698;28;19912;-85
2023/11/23 09:11:34;;;;;;;;;;;;;;;-144.99;100.00;67352.69;5104828;22;19924;-76
2023/11/23 09:14:01;;;;;;;;;;;;;;;-144.99;100.00;67352.69;5077095;28;19997;-77
2023/11/23 09:16:26;;;;;;;;;;;;;;;-144.99;100.00;67352.69;5076986;28;19912;-77
2023/11/23 09:18:52;;;;;;;;;;;;;;;-144.99;100.00;67352.69;5094830;28;19927;-77
2023/11/23 09:21:18;;;;;;;;;;;;;;;-144.99;100.00;67352.69;5077391;28;20010;-77
2023/11/23 09:23:43;;;;;;;;;;;;;;;-144.99;100.00;67352.69;5077614;28;19963;-77
2023/11/23 09:26:08;;;;;;;;;;;;;;;-144.99;100.00;67352.69;5077250;28;19912;-76
2023/11/23 09:28:34;;;;;;;;;;;;;;;-144.99;100.00;67352.69;5095615;28;19923;-77
2023/11/23 09:30:59;;;;;;;;;;;;;;;-144.99;100.00;67352.69;5096069;28;19916;-78
2023/11/23 09:33:24;;;;;;;;;;;;;;;-144.99;100.00;67352.69;5095356;28;20292;-77
2023/11/23 09:35:50;;;;;;;;;;;;;;;-144.99;100.00;67352.69;5077977;28;20185;-78
2023/11/23 09:38:15;;;;;;;;;;;;;;;-144.99;100.00;67352.69;5095801;28;19963;-77
2023/11/23 09:40:40;;;;;;;;;;;;;;;-144.99;100.00;67352.69;5078308;28;20019;-77
2023/11/23 09:43:06;;;;;;;;;;;;;;;-144.99;100.00;67352.69;5077971;28;19978;-78
2023/11/23 09:45:31;;;;;;;;;;;;;;;-144.99;100.00;67352.69;5077414;28;19913;-76
2023/11/23 09:47:58;;;;;;;;;;;;;;;-144.99;100.00;67352.69;5095091;28;19918;-77
2023/11/23 09:50:26;;;;;;;;;;;;;;;-144.99;100.00;67352.69;5094930;28;19916;-77
2023/11/23 09:52:53;;;;;;;;;;;;;;;-144.99;100.00;67352.69;5076798;28;20217;-77
2023/11/23 09:55:19;;;;;;;;;;;;;;;-144.99;100.00;67352.69;5094991;28;19911;-77
2023/11/23 09:57:44;;;;;;;;;;;;;;;-144.99;100.00;67352.69;5076689;28;19962;-75
2023/11/23 10:00:13;;;;;;;;;;;;;;;-144.99;100.00;67352.69;5076847;28;19912;-77
2023/11/23 10:02:39;;;;;;;;;;;;;;;-144.99;100.00;67352.69;5095392;28;19915;-77
2023/11/23 10:05:05;;;;;;;;;;;;;;;-144.99;100.00;67352.69;5077199;28;20023;-77
2023/11/23 10:07:32;;;;;;;;;;;;;;;-144.99;100.00;67352.69;5095074;28;19938;-78
2023/11/23 10:09:58;;;;;;;;;;;;;;;-144.99;100.00;67352.69;5094731;28;19954;-77
2023/11/23 10:12:25;;;;;;;;;;;;;;;-144.99;100.00;67352.69;5094731;28;20395;-77
2023/11/23 10:14:51;;;;;;;;;;;;;;;-144.99;100.00;67352.69;5076541;28;19994;-77
2023/11/23 10:17:17;;;;;;;;;;;;;;;-144.99;100.00;67352.69;5094856;28;19983;-77
2023/11/23 10:19:42;;;;;;;;;;;;;;;-144.99;100.00;67352.69;5076705;28;19973;-77
2023/11/23 10:22:07;;;;;;;;;;;;;;;-144.99;100.00;67352.69;5076702;28;19944;-77
2023/11/23 10:24:34;;;;;;;;;;;;;;;-144.99;100.00;67352.69;5094738;28;20343;-76
2023/11/23 10:26:59;;;;;;;;;;;;;;;-144.99;100.00;67352.69;5093996;28;20331;-76
2023/11/23 10:29:32;;;;;;;;;;;;;;;-144.99;100.00;67352.69;5093937;28;19912;-77
2023/11/23 10:32:00;;;;;;;;;;;;;;;-144.99;100.00;67352.69;5093927;28;19916;-78
2023/11/23 10:34:28;;;;;;;;;;;;;;;-144.99;100.00;67352.69;5094144;28;20321;-77
2023/11/23 10:36:54;;;;;;;;;;;;;;;-144.99;100.00;67352.69;5094184;28;19916;-77
2023/11/23 10:39:21;;;;;;;;;;;;;;;-144.99;100.00;67352.69;5094239;28;19958;-77
2023/11/23 10:41:47;;;;;;;;;;;;;;;-144.99;100.00;67352.69;5094968;28;19919;-77
2023/11/23 10:44:12;;;;;;;;;;;;;;;-144.99;100.00;67352.69;5094756;28;19912;-78
2023/11/23 10:46:38;;;;;;;;;;;;;;;-144.99;100.00;67352.69;5094792;28;19918;-76
2023/11/23 10:49:05;;;;;;;;;;;;;;;-144.99;100.00;67352.69;5094785;28;19996;-78
2023/11/23 10:51:30;;;;;;;;;;;;;;;-144.99;100.00;67352.69;5094350;28;19912;-77
2023/11/23 10:53:56;;;;;;;;;;;;;;;-144.99;100.00;67352.69;5075494;28;20364;-77
2023/11/23 10:56:22;;;;;;;;;;;;;;;-144.99;100.00;67352.69;5093508;28;19919;-77
2023/11/23 10:58:49;;;;;;;;;;;;;;;-144.99;100.00;67352.69;5075379;28;19916;-78
2023/11/23 11:01:21;;;;;;;;;;;;;;;-144.99;100.00;67352.69;5075070;28;19912;-77
2023/11/23 11:03:46;;;;;;;;;;;;;;;-144.99;100.00;67352.69;5093441;28;19935;-78
2023/11/23 11:06:12;;;;;;;;;;;;;;;-144.99;100.00;67352.69;5093742;28;19912;-78
2023/11/23 11:08:38;;;;;;;;;;;;;;;-144.99;100.00;67352.69;5093363;28;19916;-78
2023/11/23 11:11:13;;;;;;;;;;;;;;;-144.99;100.00;67352.69;5093021;28;19969;-80
2023/11/23 11:13:40;;;;;;;;;;;;;;;-144.99;100.00;67352.69;5093411;28;19912;-77
2023/11/23 11:16:07;;;;;;;;;;;;;;;-144.99;100.00;67352.69;5093351;28;19937;-77
2023/11/23 11:18:33;;;;;;;;;;;;;;;-144.99;100.00;67352.69;5093143;28;19920;-77
2023/11/23 11:21:10;;;;;;;;;;;;;;;-144.99;100.00;67352.69;5094209;28;19919;-78
2023/11/23 11:23:46;;;;;;;;;;;;;;;-144.99;100.00;67352.69;5090275;28;19912;-77
2023/11/23 11:26:24;;;;;;;;;;;;;;;-144.99;100.00;67352.69;5079431;28;19912;-77
2023/11/23 11:28:54;;;;;;;;;;;;;;;-144.99;100.00;67352.69;5078971;28;19920;-79
2023/11/23 11:31:27;;;;;;;;;;;;;;;-144.99;100.00;67352.69;5079120;28;19912;-77
2023/11/23 11:33:52;;;;;;;;;;;;;;;-144.99;100.00;67352.69;5097700;28;20304;-78
2023/11/23 11:36:18;;;;;;;;;;;;;;;-144.99;100.00;67352.69;5097216;28;19912;-76
2023/11/23 11:38:52;;;;;;;;;;;;;;;-144.99;100.00;67352.69;5079062;28;19927;-77
2023/11/23 11:41:18;;;;;;;;;;;;;;;-144.99;100.00;67352.69;5079405;28;19912;-77
2023/11/23 11:43:44;;;;;;;;;;;;;;;-144.99;100.00;67352.69;5079303;28;19965;-78
2023/11/23 11:46:09;;;;;;;;;;;;;;;-144.99;100.00;67352.69;5096737;28;19916;-78
2023/11/23 11:48:35;;;;;;;;;;;;;;;-144.99;100.00;67352.69;5078750;28;19923;-77
2023/11/23 11:51:04;;;;;;;;;;;;;;;-144.99;100.00;67352.69;5096414;28;19912;-77
2023/11/23 11:53:29;;;;;;;;;;;;;;;-144.99;100.00;67352.69;5096015;28;19965;-78
2023/11/23 11:55:56;;;;;;;;;;;;;;;-144.99;100.00;67352.69;5081212;28;19954;-77
2023/11/23 11:58:21;;;;;;;;;;;;;;;-144.99;100.00;67352.69;5095629;28;19919;-78
2023/11/23 12:00:47;;;;;;;;;;;;;;;-144.99;100.00;67352.69;5078731;28;20347;-78
2023/11/23 12:03:12;;;;;;;;;;;;;;;-144.99;100.00;67352.69;5078008;28;19912;-78
2023/11/23 12:05:40;;;;;;;;;;;;;;;-144.99;100.00;67352.69;5096664;28;20007;-78
2023/11/23 12:08:06;;;;;;;;;;;;;;;-144.99;100.00;67352.69;5078047;28;19916;-77
2023/11/23 12:10:41;;;;;;;;;;;;;;;-144.99;100.00;67352.69;5096535;28;19918;-77